Time;durP1;ratioP1;P1;durP2;ratioP2;P2;SDS_P1;SDS_P2;PMS_P1;PMS_P2;Temp;Humidity;BMP_temperature;BMP_pressure;BME280_temperature;BME280_humidity;BME280_pressure;Samples;Min_cycle;Max_cycle;Signal;HPM_P1;HPM_P2
2023/08/26 00:01:37;;;;;;;15.52;6.90;;;;;;;;;;4960485;28;20473;-45
2023/08/26 00:04:03;;;;;;;12.38;7.43;;;;;;;;;;4954650;28;20047;-42
2023/08/26 00:06:28;;;;;;;15.63;7.32;;;;;;;;;;4954257;28;20027;-43
2023/08/26 00:08:54;;;;;;;12.70;7.68;;;;;;;;;;4957936;28;20389;-43
2023/08/26 00:11:19;;;;;;;13.98;8.40;;;;;;;;;;4948733;28;20540;-44
2023/08/26 00:13:44;;;;;;;14.27;8.50;;;;;;;;;;4952834;28;20481;-44
2023/08/26 00:16:12;;;;;;;13.85;8.00;;;;;;;;;;4945659;29;20481;-46
2023/08/26 00:18:38;;;;;;;12.27;7.90;;;;;;;;;;4948741;28;20035;-45
2023/08/26 00:21:03;;;;;;;17.42;7.53;;;;;;;;;;4954660;28;20054;-48
2023/08/26 00:23:31;;;;;;;12.05;7.25;;;;;;;;;;4951981;28;20038;-42
2023/08/26 00:25:56;;;;;;;13.93;7.60;;;;;;;;;;4955876;28;20043;-43
2023/08/26 00:28:22;;;;;;;16.40;8.23;;;;;;;;;;4955841;29;20485;-46
2023/08/26 00:30:57;;;;;;;12.48;8.18;;;;;;;;;;4957318;28;20069;-46
2023/08/26 00:33:22;;;;;;;15.25;8.07;;;;;;;;;;4953778;28;20043;-42
2023/08/26 00:35:48;;;;;;;16.55;7.95;;;;;;;;;;4951047;29;20035;-42
2023/08/26 00:38:13;;;;;;;17.20;8.48;;;;;;;;;;4952395;28;20023;-44
2023/08/26 00:40:38;;;;;;;17.15;8.50;;;;;;;;;;4956470;28;20035;-43
2023/08/26 00:43:08;;;;;;;12.35;8.15;;;;;;;;;;4957465;29;20038;-45
2023/08/26 00:45:34;;;;;;;16.20;8.50;;;;;;;;;;4954094;28;20039;-45
2023/08/26 00:48:00;;;;;;;13.48;8.10;;;;;;;;;;4957603;28;20049;-43
2023/08/26 00:50:26;;;;;;;18.42;8.30;;;;;;;;;;4950499;28;20130;-43
2023/08/26 00:52:53;;;;;;;13.32;7.57;;;;;;;;;;4957791;28;20027;-43
2023/08/26 00:55:20;;;;;;;12.38;8.75;;;;;;;;;;4946060;28;20040;-44
2023/08/26 00:57:45;;;;;;;16.60;7.72;;;;;;;;;;4955039;29;20039;-44
2023/08/26 01:00:11;;;;;;;14.25;8.30;;;;;;;;;;4962026;28;20047;-42
2023/08/26 01:02:37;;;;;;;14.13;7.90;;;;;;;;;;4959665;28;20098;-43
2023/08/26 01:05:05;;;;;;;13.45;9.05;;;;;;;;;;4954045;28;20046;-47
2023/08/26 01:07:30;;;;;;;17.45;8.68;;;;;;;;;;4957835;28;20054;-42
2023/08/26 01:09:56;;;;;;;18.67;9.25;;;;;;;;;;4960744;28;20374;-44
2023/08/26 01:12:40;;;;;;;17.27;8.57;;;;;;;;;;4958782;28;20031;-45
2023/08/26 01:15:09;;;;;;;14.05;8.32;;;;;;;;;;4952041;28;20050;-44
2023/08/26 01:17:35;;;;;;;16.80;8.57;;;;;;;;;;4953487;28;20079;-42
2023/08/26 01:20:03;;;;;;;12.35;8.07;;;;;;;;;;4959731;28;20051;-47
2023/08/26 01:22:30;;;;;;;14.80;8.20;;;;;;;;;;4955517;29;20488;-43
2023/08/26 01:24:56;;;;;;;15.35;7.72;;;;;;;;;;4955459;28;20251;-45
2023/08/26 01:27:21;;;;;;;12.82;7.82;;;;;;;;;;4959772;29;20105;-46
2023/08/26 01:29:47;;;;;;;11.20;8.32;;;;;;;;;;4953791;28;20069;-44
2023/08/26 01:32:37;;;;;;;13.25;8.13;;;;;;;;;;4960958;28;20126;-43
2023/08/26 01:35:06;;;;;;;13.73;8.50;;;;;;;;;;4953656;28;20531;-44
2023/08/26 01:37:32;;;;;;;14.90;8.32;;;;;;;;;;4957280;28;20035;-45
2023/08/26 01:39:59;;;;;;;11.13;7.97;;;;;;;;;;4942254;28;20078;-48
2023/08/26 01:42:26;;;;;;;16.85;8.60;;;;;;;;;;4949387;28;20114;-48
2023/08/26 01:44:52;;;;;;;12.75;7.90;;;;;;;;;;4959345;28;20400;-47
2023/08/26 01:47:17;;;;;;;10.07;8.02;;;;;;;;;;4958630;28;20158;-47
2023/08/26 01:49:44;;;;;;;16.33;8.80;;;;;;;;;;4951137;28;20036;-45
2023/08/26 01:52:10;;;;;;;19.70;9.15;;;;;;;;;;4958770;28;20066;-44
2023/08/26 01:54:35;;;;;;;17.67;8.95;;;;;;;;;;4956398;28;20035;-42
2023/08/26 01:57:00;;;;;;;17.42;8.70;;;;;;;;;;4956176;28;20033;-44
2023/08/26 01:59:26;;;;;;;19.42;9.00;;;;;;;;;;4960456;28;20035;-43
2023/08/26 02:01:51;;;;;;;16.40;9.05;;;;;;;;;;4957400;28;20031;-47
2023/08/26 02:04:17;;;;;;;22.73;9.95;;;;;;;;;;4958127;28;20047;-44
2023/08/26 02:06:42;;;;;;;14.18;8.20;;;;;;;;;;4957154;28;20038;-44
2023/08/26 02:09:08;;;;;;;14.68;8.73;;;;;;;;;;4957769;28;20102;-47
2023/08/26 02:11:33;;;;;;;12.25;9.32;;;;;;;;;;4959868;28;20034;-42
2023/08/26 02:13:58;;;;;;;16.70;8.82;;;;;;;;;;4957579;28;20097;-43
2023/08/26 02:16:24;;;;;;;16.83;8.82;;;;;;;;;;4957175;28;20606;-44
2023/08/26 02:18:49;;;;;;;16.63;8.57;;;;;;;;;;4959511;28;20037;-43
2023/08/26 02:21:15;;;;;;;14.25;8.93;;;;;;;;;;4960237;28;20058;-42
2023/08/26 02:23:40;;;;;;;20.15;9.18;;;;;;;;;;4950455;28;20027;-43
2023/08/26 02:26:05;;;;;;;14.65;9.27;;;;;;;;;;4956596;28;20058;-44
2023/08/26 02:28:31;;;;;;;16.45;9.15;;;;;;;;;;4960452;28;20532;-43
2023/08/26 02:30:56;;;;;;;12.77;8.63;;;;;;;;;;4959316;28;20043;-45
2023/08/26 02:33:24;;;;;;;14.10;8.95;;;;;;;;;;4958458;28;20162;-42
2023/08/26 02:35:49;;;;;;;17.40;9.25;;;;;;;;;;4956655;28;20098;-47
2023/08/26 02:38:15;;;;;;;15.30;9.10;;;;;;;;;;4958748;28;20420;-41
2023/08/26 02:40:40;;;;;;;11.50;8.68;;;;;;;;;;4954571;28;20123;-44
2023/08/26 02:43:06;;;;;;;13.25;8.93;;;;;;;;;;4959805;29;20035;-44
2023/08/26 02:45:31;;;;;;;14.10;8.77;;;;;;;;;;4955939;28;20043;-42
2023/08/26 02:47:57;;;;;;;12.93;8.38;;;;;;;;;;4954964;28;20035;-43
2023/08/26 02:50:24;;;;;;;9.82;8.45;;;;;;;;;;4958977;28;20131;-43
2023/08/26 02:52:50;;;;;;;10.70;9.05;;;;;;;;;;4957145;28;20031;-45
2023/08/26 02:55:15;;;;;;;17.48;9.07;;;;;;;;;;4953254;28;20381;-45
2023/08/26 02:57:41;;;;;;;11.45;9.40;;;;;;;;;;4957407;28;20114;-47
2023/08/26 03:00:07;;;;;;;18.60;9.38;;;;;;;;;;4963023;28;20050;-41
2023/08/26 03:02:34;;;;;;;18.35;9.07;;;;;;;;;;4950162;28;20051;-42
2023/08/26 03:04:59;;;;;;;15.70;9.15;;;;;;;;;;4957220;28;20051;-43
2023/08/26 03:07:25;;;;;;;16.05;8.85;;;;;;;;;;4956891;28;20193;-45
2023/08/26 03:09:50;;;;;;;14.07;9.18;;;;;;;;;;4958480;28;20055;-44
2023/08/26 03:12:15;;;;;;;10.95;8.93;;;;;;;;;;4959061;28;20031;-42
2023/08/26 03:14:41;;;;;;;15.05;9.25;;;;;;;;;;4944323;28;20178;-45
2023/08/26 03:17:06;;;;;;;18.13;9.38;;;;;;;;;;4957346;28;20042;-48
2023/08/26 03:19:33;;;;;;;18.15;10.00;;;;;;;;;;4958803;28;20035;-41
2023/08/26 03:21:58;;;;;;;16.73;9.38;;;;;;;;;;4959084;28;20106;-43
2023/08/26 03:24:24;;;;;;;11.55;8.68;;;;;;;;;;4955187;28;20066;-44
2023/08/26 03:26:49;;;;;;;14.73;8.50;;;;;;;;;;4958523;29;20037;-44
2023/08/26 03:29:14;;;;;;;12.88;9.07;;;;;;;;;;4955794;28;20047;-43
2023/08/26 03:31:41;;;;;;;16.25;9.70;;;;;;;;;;4954970;28;20027;-44
2023/08/26 03:34:07;;;;;;;14.98;9.32;;;;;;;;;;4958255;28;20135;-44
2023/08/26 03:36:32;;;;;;;13.80;8.88;;;;;;;;;;4957326;28;20063;-42
2023/08/26 03:38:58;;;;;;;13.75;8.68;;;;;;;;;;4958630;28;20082;-46
2023/08/26 03:41:23;;;;;;;13.45;8.85;;;;;;;;;;4955807;28;20382;-44
2023/08/26 03:43:49;;;;;;;16.70;8.50;;;;;;;;;;4955886;28;20043;-43
2023/08/26 03:46:14;;;;;;;12.00;8.50;;;;;;;;;;4953684;29;20034;-42
2023/08/26 03:48:39;;;;;;;17.60;8.68;;;;;;;;;;4958331;28;20029;-44
2023/08/26 03:51:05;;;;;;;13.18;8.82;;;;;;;;;;4956684;28;20042;-43
2023/08/26 03:53:32;;;;;;;17.60;9.55;;;;;;;;;;4958431;28;20045;-43
2023/08/26 03:55:57;;;;;;;14.63;9.23;;;;;;;;;;4955044;28;20043;-43
2023/08/26 03:58:23;;;;;;;19.33;9.07;;;;;;;;;;4958684;28;20030;-45
2023/08/26 04:00:48;;;;;;;16.13;9.10;;;;;;;;;;4955090;28;20428;-43
2023/08/26 04:03:14;;;;;;;14.15;9.27;;;;;;;;;;4954683;28;20051;-45
2023/08/26 04:05:39;;;;;;;15.30;8.75;;;;;;;;;;4956464;28;20440;-45
2023/08/26 04:08:05;;;;;;;17.08;9.18;;;;;;;;;;4957847;28;20429;-44
2023/08/26 04:10:30;;;;;;;12.75;8.80;;;;;;;;;;4956526;28;20035;-45
2023/08/26 04:13:00;;;;;;;14.68;8.57;;;;;;;;;;4957225;28;20091;-44
2023/08/26 04:15:26;;;;;;;18.75;8.85;;;;;;;;;;4954637;28;20039;-44
2023/08/26 04:17:51;;;;;;;16.77;8.85;;;;;;;;;;4957984;28;20046;-45
2023/08/26 04:20:17;;;;;;;21.38;8.07;;;;;;;;;;4953749;28;20047;-45
2023/08/26 04:22:42;;;;;;;13.07;8.27;;;;;;;;;;4958135;28;20035;-46
2023/08/26 04:25:08;;;;;;;12.63;9.05;;;;;;;;;;4955137;28;20520;-45
2023/08/26 04:27:34;;;;;;;13.68;8.80;;;;;;;;;;4957721;28;20090;-42
2023/08/26 04:30:03;;;;;;;17.02;8.93;;;;;;;;;;4944599;28;20501;-45
2023/08/26 04:32:28;;;;;;;19.58;8.75;;;;;;;;;;4954256;28;20042;-45
2023/08/26 04:34:53;;;;;;;14.70;8.27;;;;;;;;;;4948824;28;20047;-42
2023/08/26 04:37:22;;;;;;;11.13;8.45;;;;;;;;;;4954580;28;20082;-42
2023/08/26 04:39:48;;;;;;;16.17;8.38;;;;;;;;;;4955814;28;20504;-41
2023/08/26 04:42:14;;;;;;;18.15;9.10;;;;;;;;;;4953578;28;20027;-43
2023/08/26 04:44:39;;;;;;;14.77;8.43;;;;;;;;;;4950350;28;20090;-44
2023/08/26 04:47:05;;;;;;;18.15;9.07;;;;;;;;;;4955863;28;20112;-43
2023/08/26 04:49:33;;;;;;;14.63;8.65;;;;;;;;;;4957752;28;20071;-42
2023/08/26 04:51:59;;;;;;;18.38;9.00;;;;;;;;;;4956289;28;20099;-43
2023/08/26 04:54:24;;;;;;;15.25;9.40;;;;;;;;;;4954317;28;20645;-47
2023/08/26 04:56:50;;;;;;;20.65;9.25;;;;;;;;;;4953664;28;20472;-46
2023/08/26 04:59:16;;;;;;;10.40;8.95;;;;;;;;;;4939199;28;20039;-42
2023/08/26 05:01:41;;;;;;;13.05;8.80;;;;;;;;;;4950322;28;20122;-43
2023/08/26 05:04:07;;;;;;;17.17;10.00;;;;;;;;;;4953654;28;20043;-45
2023/08/26 05:06:32;;;;;;;13.90;9.55;;;;;;;;;;4946911;28;20032;-43
2023/08/26 05:08:57;;;;;;;18.25;9.38;;;;;;;;;;4955920;28;20034;-47
2023/08/26 05:11:23;;;;;;;14.43;9.48;;;;;;;;;;4957472;28;20035;-45
2023/08/26 05:13:48;;;;;;;18.27;9.05;;;;;;;;;;4952894;28;20031;-44
2023/08/26 05:16:13;;;;;;;15.55;10.30;;;;;;;;;;4945877;28;20110;-43
2023/08/26 05:18:39;;;;;;;15.13;9.45;;;;;;;;;;4969415;28;20039;-43
2023/08/26 05:21:04;;;;;;;14.25;9.63;;;;;;;;;;4955848;28;20031;-42
2023/08/26 05:23:31;;;;;;;10.40;9.32;;;;;;;;;;4957031;28;20027;-42
2023/08/26 05:25:56;;;;;;;14.13;9.00;;;;;;;;;;4954918;28;20094;-44
2023/08/26 05:28:21;;;;;;;14.18;9.82;;;;;;;;;;4949731;28;20144;-42
2023/08/26 05:30:47;;;;;;;12.65;9.77;;;;;;;;;;4947547;28;20040;-47
2023/08/26 05:33:12;;;;;;;15.65;9.07;;;;;;;;;;4957832;28;20035;-44
2023/08/26 05:35:38;;;;;;;14.30;9.70;;;;;;;;;;4955868;28;20534;-43
2023/08/26 05:38:03;;;;;;;13.27;9.07;;;;;;;;;;4956861;28;20039;-43
2023/08/26 05:40:29;;;;;;;14.13;9.63;;;;;;;;;;4955616;28;20538;-46
2023/08/26 05:42:55;;;;;;;13.55;8.93;;;;;;;;;;4950484;28;20057;-43
2023/08/26 05:45:21;;;;;;;14.30;9.43;;;;;;;;;;4950299;28;20485;-44
2023/08/26 05:47:46;;;;;;;13.70;9.45;;;;;;;;;;4956190;28;20117;-44
2023/08/26 05:50:12;;;;;;;16.95;9.70;;;;;;;;;;4950613;28;20612;-44
2023/08/26 05:52:37;;;;;;;14.18;9.30;;;;;;;;;;4958903;28;20027;-42
2023/08/26 05:55:03;;;;;;;18.90;9.38;;;;;;;;;;4956419;28;20130;-46
2023/08/26 05:57:28;;;;;;;12.52;9.20;;;;;;;;;;4956561;29;20039;-45
2023/08/26 05:59:54;;;;;;;11.13;8.13;;;;;;;;;;4960144;28;20048;-45
2023/08/26 06:02:19;;;;;;;12.90;8.27;;;;;;;;;;4957657;28;20031;-42
2023/08/26 06:04:44;;;;;;;14.75;8.45;;;;;;;;;;4952601;28;20038;-43
2023/08/26 06:07:10;;;;;;;15.82;8.95;;;;;;;;;;4958197;29;20023;-44
2023/08/26 06:09:35;;;;;;;11.10;7.85;;;;;;;;;;4956715;28;20043;-43
2023/08/26 06:12:01;;;;;;;11.40;8.20;;;;;;;;;;4957185;28;20035;-43
2023/08/26 06:14:26;;;;;;;18.65;8.82;;;;;;;;;;4958430;28;20050;-44
2023/08/26 06:16:51;;;;;;;12.13;8.60;;;;;;;;;;4958681;29;20039;-43
2023/08/26 06:19:17;;;;;;;17.95;8.43;;;;;;;;;;4958685;28;20082;-44
2023/08/26 06:21:42;;;;;;;16.02;8.60;;;;;;;;;;4957680;28;20644;-44
2023/08/26 06:24:08;;;;;;;13.95;7.65;;;;;;;;;;4973472;28;20035;-45
2023/08/26 06:26:33;;;;;;;12.00;8.18;;;;;;;;;;4956973;28;20022;-46
2023/08/26 06:28:59;;;;;;;14.90;7.85;;;;;;;;;;4956534;28;20031;-45
2023/08/26 06:31:24;;;;;;;12.00;8.02;;;;;;;;;;4957056;28;21295;-45
2023/08/26 06:33:49;;;;;;;13.25;7.90;;;;;;;;;;4949497;28;20035;-46
2023/08/26 06:36:15;;;;;;;14.18;7.70;;;;;;;;;;4950501;28;20027;-45
2023/08/26 06:38:40;;;;;;;10.27;7.45;;;;;;;;;;4963829;28;20110;-43
2023/08/26 06:41:06;;;;;;;14.57;7.60;;;;;;;;;;4951422;28;20043;-42
2023/08/26 06:43:31;;;;;;;13.60;7.55;;;;;;;;;;4956028;29;20055;-44
2023/08/26 06:45:58;;;;;;;9.60;7.43;;;;;;;;;;4953810;28;20106;-45
2023/08/26 06:48:23;;;;;;;21.00;8.65;;;;;;;;;;4958690;28;20023;-43
2023/08/26 06:50:50;;;;;;;9.75;6.72;;;;;;;;;;4958721;28;20046;-46
2023/08/26 06:53:22;;;;;;;13.68;7.32;;;;;;;;;;4952925;28;20384;-46
2023/08/26 06:55:52;;;;;;;13.45;7.35;;;;;;;;;;4955232;28;20039;-45
2023/08/26 06:58:18;;;;;;;11.27;6.20;;;;;;;;;;4957209;28;20117;-44
2023/08/26 07:00:44;;;;;;;14.70;6.80;;;;;;;;;;4957602;28;20521;-43
2023/08/26 07:03:10;;;;;;;11.88;6.28;;;;;;;;;;4952629;28;20619;-42
2023/08/26 07:05:38;;;;;;;17.95;6.53;;;;;;;;;;4955593;28;20036;-43
2023/08/26 07:08:04;;;;;;;13.20;6.28;;;;;;;;;;4953816;28;20034;-44
2023/08/26 07:10:29;;;;;;;14.32;5.85;;;;;;;;;;4958795;28;20038;-42
2023/08/26 07:12:55;;;;;;;10.27;6.25;;;;;;;;;;4952806;28;20031;-43
2023/08/26 07:15:20;;;;;;;10.57;5.85;;;;;;;;;;4954750;28;20035;-45
2023/08/26 07:17:45;;;;;;;12.38;5.97;;;;;;;;;;4954765;29;20489;-44
2023/08/26 07:20:12;;;;;;;20.65;6.60;;;;;;;;;;4954581;29;20055;-41
2023/08/26 07:22:38;;;;;;;17.83;6.05;;;;;;;;;;4952920;28;20019;-44
2023/08/26 07:25:04;;;;;;;14.23;6.35;;;;;;;;;;4941409;29;20051;-45
2023/08/26 07:27:29;;;;;;;15.45;5.95;;;;;;;;;;4936956;29;20027;-47
2023/08/26 07:29:55;;;;;;;11.88;6.10;;;;;;;;;;4943399;28;20071;-46
2023/08/26 07:32:20;;;;;;;11.95;5.72;;;;;;;;;;4954756;28;20130;-47
2023/08/26 07:34:45;;;;;;;12.23;6.43;;;;;;;;;;4950937;28;20453;-45
2023/08/26 07:37:11;;;;;;;29.42;12.00;;;;;;;;;;4953369;29;20086;-44
2023/08/26 07:39:37;;;;;;;24.02;10.40;;;;;;;;;;4957894;28;20118;-43
2023/08/26 07:42:03;;;;;;;13.02;6.72;;;;;;;;;;4954738;28;20047;-45
2023/08/26 07:44:29;;;;;;;18.98;7.22;;;;;;;;;;4954070;28;20400;-44
2023/08/26 07:46:54;;;;;;;17.58;7.45;;;;;;;;;;4948844;28;20038;-44
2023/08/26 07:49:19;;;;;;;15.80;6.97;;;;;;;;;;4956474;28;20035;-43
2023/08/26 07:51:45;;;;;;;9.35;6.47;;;;;;;;;;4950795;29;20061;-45
2023/08/26 07:54:10;;;;;;;14.43;6.95;;;;;;;;;;4958517;28;20039;-42
2023/08/26 07:56:36;;;;;;;15.52;6.68;;;;;;;;;;4955556;29;20509;-42
2023/08/26 07:59:02;;;;;;;19.63;6.70;;;;;;;;;;4948340;28;20452;-45
2023/08/26 08:01:27;;;;;;;13.50;6.95;;;;;;;;;;4957802;28;20027;-46
2023/08/26 08:03:52;;;;;;;15.20;6.88;;;;;;;;;;4943669;28;20055;-44
2023/08/26 08:06:18;;;;;;;19.27;7.07;;;;;;;;;;4969858;28;20147;-45
2023/08/26 08:08:43;;;;;;;22.17;7.10;;;;;;;;;;4954710;28;20062;-43
2023/08/26 08:11:09;;;;;;;13.63;7.03;;;;;;;;;;4951829;28;20031;-45
2023/08/26 08:13:34;;;;;;;16.77;7.65;;;;;;;;;;4949506;29;20020;-43
2023/08/26 08:15:59;;;;;;;14.52;7.18;;;;;;;;;;4954802;28;20126;-45
2023/08/26 08:18:25;;;;;;;13.82;7.22;;;;;;;;;;4944003;28;20430;-43
2023/08/26 08:20:50;;;;;;;11.98;6.75;;;;;;;;;;4951064;28;20094;-45
2023/08/26 08:23:16;;;;;;;12.18;6.47;;;;;;;;;;4953417;28;20504;-45
2023/08/26 08:25:41;;;;;;;25.67;7.55;;;;;;;;;;4955283;28;20058;-43
2023/08/26 08:28:07;;;;;;;12.68;6.78;;;;;;;;;;4950355;28;20035;-44
2023/08/26 08:30:32;;;;;;;15.85;6.80;;;;;;;;;;4951795;29;20050;-45
2023/08/26 08:32:59;;;;;;;11.70;7.07;;;;;;;;;;4947004;28;20051;-44
2023/08/26 08:35:26;;;;;;;12.85;6.93;;;;;;;;;;4954017;28;20058;-43
2023/08/26 08:37:51;;;;;;;15.52;6.50;;;;;;;;;;4955280;29;20031;-45
2023/08/26 08:40:17;;;;;;;11.20;6.63;;;;;;;;;;4952884;28;20071;-42
2023/08/26 08:42:43;;;;;;;18.50;7.03;;;;;;;;;;4950875;29;20094;-46
2023/08/26 08:45:10;;;;;;;12.30;6.97;;;;;;;;;;4955248;28;20063;-43
2023/08/26 08:47:36;;;;;;;10.40;6.25;;;;;;;;;;4943934;28;20043;-47
2023/08/26 08:50:02;;;;;;;13.65;6.65;;;;;;;;;;4950170;28;20047;-46
2023/08/26 08:52:28;;;;;;;17.95;6.78;;;;;;;;;;4952166;28;20031;-46
2023/08/26 08:54:54;;;;;;;14.20;6.30;;;;;;;;;;4946671;28;20071;-42
2023/08/26 08:57:23;;;;;;;13.40;7.03;;;;;;;;;;4953421;29;20542;-45
2023/08/26 08:59:49;;;;;;;19.20;8.40;;;;;;;;;;4946112;28;20040;-42
2023/08/26 09:02:14;;;;;;;17.60;7.40;;;;;;;;;;4952795;28;20042;-42
2023/08/26 09:04:41;;;;;;;21.95;7.28;;;;;;;;;;4951050;28;20031;-42
2023/08/26 09:07:09;;;;;;;16.70;8.02;;;;;;;;;;4949681;28;20515;-44
2023/08/26 09:09:35;;;;;;;13.32;7.68;;;;;;;;;;4947007;28;20554;-48
2023/08/26 09:12:00;;;;;;;18.80;7.50;;;;;;;;;;4954262;29;20111;-48
2023/08/26 09:14:26;;;;;;;10.98;7.43;;;;;;;;;;4948477;28;20059;-47
2023/08/26 09:16:54;;;;;;;14.88;8.25;;;;;;;;;;4953617;28;20070;-44
2023/08/26 09:19:19;;;;;;;13.80;8.15;;;;;;;;;;4953324;29;20523;-44
2023/08/26 09:21:46;;;;;;;14.75;7.70;;;;;;;;;;4956475;28;20110;-43
2023/08/26 09:24:16;;;;;;;10.77;7.13;;;;;;;;;;4960805;28;20062;-49
2023/08/26 09:26:58;;;;;;;18.52;7.85;;;;;;;;;;4956999;28;20495;-44
2023/08/26 09:29:25;;;;;;;16.42;7.70;;;;;;;;;;4956611;28;20047;-46
2023/08/26 09:31:54;;;;;;;14.55;7.00;;;;;;;;;;4959486;28;20023;-43
2023/08/26 09:34:25;;;;;;;11.13;6.47;;;;;;;;;;4957062;28;20035;-49
2023/08/26 09:36:50;;;;;;;10.80;6.38;;;;;;;;;;4959200;28;20031;-43
2023/08/26 09:39:16;;;;;;;14.50;7.18;;;;;;;;;;4960328;28;20045;-49
2023/08/26 09:41:43;;;;;;;12.60;7.15;;;;;;;;;;4957092;28;20087;-47
2023/08/26 09:44:12;;;;;;;19.05;7.43;;;;;;;;;;4960092;28;20039;-47
2023/08/26 09:46:39;;;;;;;16.40;7.22;;;;;;;;;;4958012;28;20023;-45
2023/08/26 09:49:11;;;;;;;9.80;7.18;;;;;;;;;;4952444;29;20074;-45
2023/08/26 09:51:37;;;;;;;25.08;7.72;;;;;;;;;;4955163;29;20038;-45
2023/08/26 09:54:04;;;;;;;16.63;7.53;;;;;;;;;;4956528;28;20035;-45
2023/08/26 09:56:29;;;;;;;12.10;7.55;;;;;;;;;;4956606;28;20370;-42
2023/08/26 09:58:56;;;;;;;12.68;8.20;;;;;;;;;;4950054;28;20039;-43
2023/08/26 10:01:24;;;;;;;16.33;8.30;;;;;;;;;;4956688;28;20384;-49
2023/08/26 10:03:53;;;;;;;14.85;7.93;;;;;;;;;;4957690;28;20560;-47
2023/08/26 10:06:22;;;;;;;14.80;7.65;;;;;;;;;;4960268;28;20035;-44
2023/08/26 10:08:55;;;;;;;18.73;7.80;;;;;;;;;;4954129;28;20470;-45
2023/08/26 10:11:21;;;;;;;12.65;7.90;;;;;;;;;;4955715;29;20027;-46
2023/08/26 10:13:50;;;;;;;21.95;8.30;;;;;;;;;;4952734;28;20035;-41
2023/08/26 10:16:19;;;;;;;14.98;7.40;;;;;;;;;;4960154;28;20027;-44
2023/08/26 10:18:54;;;;;;;15.70;8.15;;;;;;;;;;4947980;28;20043;-44
2023/08/26 10:21:20;;;;;;;14.10;8.65;;;;;;;;;;4957983;28;20027;-47
2023/08/26 10:23:48;;;;;;;16.02;8.10;;;;;;;;;;4960016;28;20019;-41
2023/08/26 10:26:14;;;;;;;14.75;7.85;;;;;;;;;;4957649;28;20028;-48
2023/08/26 10:28:41;;;;;;;15.43;8.30;;;;;;;;;;4959008;28;20109;-44
2023/08/26 10:31:09;;;;;;;15.02;8.55;;;;;;;;;;4936833;28;20058;-45
2023/08/26 10:33:58;;;;;;;16.35;8.20;;;;;;;;;;4935572;29;20031;-47
2023/08/26 10:36:24;;;;;;;17.30;8.20;;;;;;;;;;4959486;28;20047;-46
2023/08/26 10:38:57;;;;;;;9.10;7.40;;;;;;;;;;4958892;28;20020;-45
2023/08/26 10:41:23;;;;;;;14.13;8.40;;;;;;;;;;4959702;28;20035;-44
2023/08/26 10:43:56;;;;;;;17.02;7.80;;;;;;;;;;4949664;28;20034;-47
2023/08/26 10:46:36;;;;;;;13.43;8.48;;;;;;;;;;4958000;28;20023;-43
2023/08/26 10:49:03;;;;;;;9.30;6.43;;;;;;;;;;4957296;28;20042;-45
2023/08/26 10:51:30;;;;;;;14.93;6.60;;;;;;;;;;4957806;28;20039;-45
2023/08/26 10:54:04;;;;;;;13.38;6.60;;;;;;;;;;4949589;28;20031;-45
2023/08/26 10:56:34;;;;;;;12.50;6.20;;;;;;;;;;4955905;28;20042;-42
2023/08/26 10:59:02;;;;;;;15.73;6.20;;;;;;;;;;4958673;28;20055;-47
2023/08/26 11:01:28;;;;;;;13.70;6.13;;;;;;;;;;4958176;28;20540;-44
2023/08/26 11:03:54;;;;;;;12.88;6.18;;;;;;;;;;4958575;28;20487;-44
2023/08/26 11:06:22;;;;;;;13.43;5.78;;;;;;;;;;4958167;28;20086;-45
2023/08/26 11:08:57;;;;;;;10.25;4.97;;;;;;;;;;4956863;28;20681;-45
2023/08/26 11:11:24;;;;;;;8.15;5.28;;;;;;;;;;4952918;28;20054;-42
2023/08/26 11:13:50;;;;;;;7.10;5.20;;;;;;;;;;4950813;29;20039;-42
2023/08/26 11:16:16;;;;;;;7.10;5.30;;;;;;;;;;4954776;28;20046;-47
2023/08/26 11:18:42;;;;;;;9.07;5.43;;;;;;;;;;4954279;28;20038;-43
2023/08/26 11:21:08;;;;;;;11.20;5.47;;;;;;;;;;4959028;28;20059;-45
2023/08/26 11:23:34;;;;;;;11.45;4.93;;;;;;;;;;4956539;29;20031;-44
2023/08/26 11:26:00;;;;;;;12.10;5.53;;;;;;;;;;4955422;28;20035;-47
2023/08/26 11:28:30;;;;;;;11.68;5.38;;;;;;;;;;4958146;28;20087;-43
2023/08/26 11:30:56;;;;;;;11.03;5.50;;;;;;;;;;4958218;28;20043;-47
2023/08/26 11:33:22;;;;;;;11.90;5.82;;;;;;;;;;4953399;28;20461;-46
2023/08/26 11:35:48;;;;;;;12.88;5.63;;;;;;;;;;4950720;28;20066;-45
2023/08/26 11:38:15;;;;;;;7.88;5.43;;;;;;;;;;4956605;28;20440;-44
2023/08/26 11:40:41;;;;;;;13.27;5.68;;;;;;;;;;4956516;28;20086;-43
2023/08/26 11:43:11;;;;;;;9.75;5.55;;;;;;;;;;4956183;28;20024;-45
2023/08/26 11:45:38;;;;;;;13.70;6.30;;;;;;;;;;4954299;28;20074;-47
2023/08/26 11:48:05;;;;;;;13.07;5.40;;;;;;;;;;4953166;28;20035;-45
2023/08/26 11:50:33;;;;;;;7.47;5.43;;;;;;;;;;4949301;28;20043;-43
2023/08/26 11:53:02;;;;;;;10.98;5.95;;;;;;;;;;4958600;28;20117;-45
2023/08/26 11:55:28;;;;;;;8.48;5.53;;;;;;;;;;4952604;28;20043;-44
2023/08/26 11:57:55;;;;;;;18.40;5.78;;;;;;;;;;4955108;29;20411;-43
2023/08/26 12:00:22;;;;;;;13.52;6.47;;;;;;;;;;4948169;28;20051;-43
2023/08/26 12:02:49;;;;;;;8.50;5.85;;;;;;;;;;4950622;28;20051;-47
2023/08/26 12:05:15;;;;;;;11.25;5.85;;;;;;;;;;4954093;28;20086;-44
2023/08/26 12:07:54;;;;;;;11.45;5.93;;;;;;;;;;4955724;28;20043;-48
2023/08/26 12:10:19;;;;;;;7.63;5.18;;;;;;;;;;4952319;28;20031;-45
2023/08/26 12:12:46;;;;;;;9.40;5.68;;;;;;;;;;4955972;29;20042;-48
2023/08/26 12:15:18;;;;;;;6.60;5.05;;;;;;;;;;4954167;28;20381;-45
2023/08/26 12:17:48;;;;;;;9.95;5.60;;;;;;;;;;4953462;29;20090;-43
2023/08/26 12:20:24;;;;;;;12.10;5.32;;;;;;;;;;4957198;28;20047;-46
2023/08/26 12:22:50;;;;;;;9.55;5.57;;;;;;;;;;4955896;28;20137;-45
2023/08/26 12:25:25;;;;;;;10.75;5.20;;;;;;;;;;4951354;28;20040;-46
2023/08/26 12:27:51;;;;;;;9.65;5.25;;;;;;;;;;4954889;28;20027;-46
2023/08/26 12:30:16;;;;;;;8.63;4.70;;;;;;;;;;4956947;28;20043;-48
2023/08/26 12:32:42;;;;;;;8.93;4.22;;;;;;;;;;4953209;28;20027;-43
2023/08/26 12:35:08;;;;;;;6.57;4.15;;;;;;;;;;4954034;28;20043;-47
2023/08/26 12:37:36;;;;;;;9.90;4.65;;;;;;;;;;4955772;29;20432;-44
2023/08/26 12:40:04;;;;;;;7.68;4.10;;;;;;;;;;4959315;28;20038;-46
2023/08/26 12:42:33;;;;;;;7.32;4.47;;;;;;;;;;4957124;28;20059;-43
2023/08/26 12:44:59;;;;;;;11.77;4.30;;;;;;;;;;4954024;28;20039;-44
2023/08/26 12:47:25;;;;;;;11.15;4.32;;;;;;;;;;4956244;28;20463;-43
2023/08/26 12:49:51;;;;;;;10.63;4.28;;;;;;;;;;4953950;28;20131;-45
2023/08/26 12:52:16;;;;;;;6.45;4.20;;;;;;;;;;4956412;28;20111;-47
2023/08/26 12:54:41;;;;;;;5.00;4.00;;;;;;;;;;4947884;28;20053;-45
2023/08/26 12:57:07;;;;;;;6.25;4.22;;;;;;;;;;4965530;28;20083;-45
2023/08/26 12:59:32;;;;;;;8.65;4.30;;;;;;;;;;4957013;28;20042;-44
2023/08/26 13:01:58;;;;;;;12.48;4.78;;;;;;;;;;4961318;28;20054;-42
2023/08/26 13:04:23;;;;;;;7.32;4.53;;;;;;;;;;4959912;29;20040;-45
2023/08/26 13:06:49;;;;;;;5.93;4.10;;;;;;;;;;4957953;28;20031;-44
2023/08/26 13:09:14;;;;;;;7.88;4.78;;;;;;;;;;4958493;28;20102;-44
2023/08/26 13:11:40;;;;;;;6.57;4.60;;;;;;;;;;4959810;28;20090;-43
2023/08/26 13:14:05;;;;;;;9.93;4.88;;;;;;;;;;4960733;28;20104;-44
2023/08/26 13:16:30;;;;;;;10.38;4.93;;;;;;;;;;4960277;28;20027;-46
2023/08/26 13:18:56;;;;;;;11.10;5.10;;;;;;;;;;4958059;28;20031;-45
2023/08/26 13:21:21;;;;;;;11.13;4.97;;;;;;;;;;4960253;28;20452;-43
2023/08/26 13:23:47;;;;;;;10.35;5.00;;;;;;;;;;4960101;28;20038;-43
2023/08/26 13:26:12;;;;;;;12.85;4.70;;;;;;;;;;4953664;28;20019;-44
2023/08/26 13:28:38;;;;;;;11.65;4.90;;;;;;;;;;4955572;28;20493;-47
2023/08/26 13:31:04;;;;;;;11.65;4.97;;;;;;;;;;4958741;28;20493;-43
2023/08/26 13:33:29;;;;;;;11.00;4.90;;;;;;;;;;4960092;28;20035;-44
2023/08/26 13:35:55;;;;;;;13.32;4.85;;;;;;;;;;4960871;28;20110;-45
2023/08/26 13:38:20;;;;;;;8.23;4.60;;;;;;;;;;4960830;28;20034;-45
2023/08/26 13:40:46;;;;;;;10.00;5.00;;;;;;;;;;4956661;29;20509;-45
2023/08/26 13:43:11;;;;;;;10.10;4.80;;;;;;;;;;4958307;28;20127;-43
2023/08/26 13:45:36;;;;;;;9.88;5.22;;;;;;;;;;4960390;28;20032;-47
2023/08/26 13:48:02;;;;;;;9.07;5.20;;;;;;;;;;4958753;28;20034;-46
2023/08/26 13:50:29;;;;;;;14.73;5.00;;;;;;;;;;4953658;29;20135;-44
2023/08/26 13:52:54;;;;;;;6.35;4.85;;;;;;;;;;4960000;28;20035;-45
2023/08/26 13:55:20;;;;;;;7.57;4.68;;;;;;;;;;4959430;28;20174;-43
2023/08/26 13:57:45;;;;;;;6.75;4.63;;;;;;;;;;4960821;28;20173;-46
2023/08/26 14:00:13;;;;;;;10.35;5.03;;;;;;;;;;4959607;28;20044;-48
2023/08/26 14:02:39;;;;;;;12.55;5.50;;;;;;;;;;4947179;29;20075;-43
2023/08/26 14:05:07;;;;;;;10.88;4.60;;;;;;;;;;4960091;28;20067;-45
2023/08/26 14:07:32;;;;;;;9.95;5.10;;;;;;;;;;4954747;28;20129;-43
2023/08/26 14:09:58;;;;;;;7.72;5.00;;;;;;;;;;4957324;28;20047;-45
2023/08/26 14:12:23;;;;;;;6.45;4.65;;;;;;;;;;4960237;28;20035;-44
2023/08/26 14:14:49;;;;;;;6.88;5.10;;;;;;;;;;4960383;28;20040;-44
2023/08/26 14:17:14;;;;;;;9.60;5.00;;;;;;;;;;4953820;28;20480;-45
2023/08/26 14:19:40;;;;;;;11.40;5.38;;;;;;;;;;4959825;28;20041;-45
2023/08/26 14:22:06;;;;;;;7.70;5.00;;;;;;;;;;4956903;28;20062;-45
2023/08/26 14:24:31;;;;;;;10.02;4.97;;;;;;;;;;4958040;28;20560;-46
2023/08/26 14:26:57;;;;;;;12.30;5.70;;;;;;;;;;4957838;29;20481;-46